KMKG

Muskegon County Airport

Muskegon, Michigan, USA
METAR KMKG 170155Z 08008KT 10SM SCT240 M04/M09 A3011 RMK AO2 SLP207 T10441089
Observed Flight Rules
Dec-17 @ 01:55 UTC (36 minutes ago) Visual Flight Rules
Wind Visibility Clouds
80° at 8 knots 10 miles
  • Scattered at 24,000' AGL
Temperatures Readings
Current -4°C / 25°F
Dewpoint -9°C / 16°F
Humidity 69%
Altimeter 30.11" Hg
Pressure 1020.7 hPa
Elevation 191
METAR KMKG 170155Z 08008KT 10SM SCT240 M04/M09 A3011 RMK AO2 SLP207 T10441089
Observed Flight Rules
Dec-17 @ 01:55 UTC
(36 minutes ago)
VFR
Wind Visibility
80° at 8 knots 10 miles
Clouds
  • Scattered at 24,000' AGL
Temperature Dewpoint
-4°C / 25°F -9°C / 16°F
Humidity Altimeter Pressure
69% 30.11" Hg 1020.7 hPa